sensor_id;sensor_type;location;lat;lon;timestamp;pressure;altitude;pressure_sealevel;temperature;humidity
69173;BME280;56280;49.662;8.408;2023-02-13T00:00:54;102824.13;;;5.54;90.16
69173;BME280;56280;49.662;8.408;2023-02-13T00:03:19;102789.91;;;5.51;88.38
69173;BME280;56280;49.662;8.408;2023-02-13T00:05:44;102793.38;;;5.53;87.38
69173;BME280;56280;49.662;8.408;2023-02-13T00:08:10;102769.84;;;5.44;86.20
69173;BME280;56280;49.662;8.408;2023-02-13T00:10:36;102819.38;;;5.70;85.89
69173;BME280;56280;49.662;8.408;2023-02-13T00:13:01;102776.88;;;5.45;86.03
69173;BME280;56280;49.662;8.408;2023-02-13T00:15:26;102771.66;;;5.42;85.47
69173;BME280;56280;49.662;8.408;2023-02-13T00:17:52;102818.75;;;5.59;86.50
69173;BME280;56280;49.662;8.408;2023-02-13T00:20:17;102806.31;;;5.64;86.63
69173;BME280;56280;49.662;8.408;2023-02-13T00:22:42;102817.63;;;5.69;86.20
69173;BME280;56280;49.662;8.408;2023-02-13T00:25:08;102791.03;;;5.39;86.24
69173;BME280;56280;49.662;8.408;2023-02-13T00:27:33;102745.28;;;4.62;89.57
69173;BME280;56280;49.662;8.408;2023-02-13T00:29:58;102821.56;;;5.10;89.50
69173;BME280;56280;49.662;8.408;2023-02-13T00:32:24;102810.75;;;4.79;91.40
69173;BME280;56280;49.662;8.408;2023-02-13T00:34:49;102819.88;;;5.06;91.46
69173;BME280;56280;49.662;8.408;2023-02-13T00:37:14;102809.38;;;5.03;91.27
69173;BME280;56280;49.662;8.408;2023-02-13T00:39:40;102813.78;;;5.45;88.94
69173;BME280;56280;49.662;8.408;2023-02-13T00:42:06;102777.53;;;5.16;88.63
69173;BME280;56280;49.662;8.408;2023-02-13T00:44:31;102791.88;;;5.43;86.62
69173;BME280;56280;49.662;8.408;2023-02-13T00:46:56;102769.00;;;5.43;85.66
69173;BME280;56280;49.662;8.408;2023-02-13T00:49:22;102755.00;;;5.41;86.52
69173;BME280;56280;49.662;8.408;2023-02-13T00:51:47;102790.47;;;5.26;87.03
69173;BME280;56280;49.662;8.408;2023-02-13T00:54:12;102782.31;;;5.37;87.02
69173;BME280;56280;49.662;8.408;2023-02-13T00:56:38;102809.09;;;5.58;86.04
69173;BME280;56280;49.662;8.408;2023-02-13T00:59:03;102799.63;;;5.08;86.56
69173;BME280;56280;49.662;8.408;2023-02-13T01:01:28;102812.13;;;5.39;86.60
69173;BME280;56280;49.662;8.408;2023-02-13T01:03:54;102824.25;;;5.48;85.65
69173;BME280;56280;49.662;8.408;2023-02-13T01:06:22;102811.25;;;5.40;85.11
69173;BME280;56280;49.662;8.408;2023-02-13T01:08:47;102816.53;;;5.39;85.92
69173;BME280;56280;49.662;8.408;2023-02-13T01:11:14;102779.66;;;4.98;86.29
69173;BME280;56280;49.662;8.408;2023-02-13T01:13:39;102791.84;;;4.57;88.46
69173;BME280;56280;49.662;8.408;2023-02-13T01:16:05;102808.97;;;4.33;92.06
69173;BME280;56280;49.662;8.408;2023-02-13T01:18:30;102774.63;;;3.89;94.29
69173;BME280;56280;49.662;8.408;2023-02-13T01:21:02;102780.81;;;3.27;98.25
69173;BME280;56280;49.662;8.408;2023-02-13T01:23:30;102804.75;;;3.06;100.00
69173;BME280;56280;49.662;8.408;2023-02-13T01:25:55;102817.19;;;2.91;100.00
69173;BME280;56280;49.662;8.408;2023-02-13T01:28:21;102812.00;;;2.85;100.00
69173;BME280;56280;49.662;8.408;2023-02-13T01:30:52;102814.34;;;3.07;100.00
69173;BME280;56280;49.662;8.408;2023-02-13T01:33:17;102775.25;;;2.85;100.00
69173;BME280;56280;49.662;8.408;2023-02-13T01:35:42;102809.03;;;3.13;100.00
69173;BME280;56280;49.662;8.408;2023-02-13T01:38:07;102792.69;;;2.88;100.00
69173;BME280;56280;49.662;8.408;2023-02-13T01:40:33;102808.31;;;2.99;100.00
69173;BME280;56280;49.662;8.408;2023-02-13T01:42:58;102816.25;;;2.96;100.00
69173;BME280;56280;49.662;8.408;2023-02-13T01:45:29;102799.41;;;3.10;100.00
69173;BME280;56280;49.662;8.408;2023-02-13T01:48:06;102798.38;;;3.25;100.00
69173;BME280;56280;49.662;8.408;2023-02-13T01:50:39;102820.69;;;4.15;100.00
69173;BME280;56280;49.662;8.408;2023-02-13T01:53:10;102784.22;;;4.43;95.25
69173;BME280;56280;49.662;8.408;2023-02-13T01:55:43;102807.41;;;4.71;91.91
69173;BME280;56280;49.662;8.408;2023-02-13T01:58:14;102763.91;;;4.51;89.21
69173;BME280;56280;49.662;8.408;2023-02-13T02:00:44;102795.44;;;4.98;87.28
69173;BME280;56280;49.662;8.408;2023-02-13T02:03:22;102757.78;;;4.51;87.58
69173;BME280;56280;49.662;8.408;2023-02-13T02:05:49;102800.06;;;4.87;87.26
69173;BME280;56280;49.662;8.408;2023-02-13T02:08:15;102776.66;;;4.71;85.89
69173;BME280;56280;49.662;8.408;2023-02-13T02:10:41;102779.25;;;4.73;84.98
69173;BME280;56280;49.662;8.408;2023-02-13T02:13:15;102789.91;;;4.67;84.86
69173;BME280;56280;49.662;8.408;2023-02-13T02:15:45;102774.28;;;4.59;84.79
69173;BME280;56280;49.662;8.408;2023-02-13T02:18:19;102777.38;;;4.80;84.28
69173;BME280;56280;49.662;8.408;2023-02-13T02:32:22;102801.03;;;4.36;89.96
69173;BME280;56280;49.662;8.408;2023-02-13T02:40:25;102804.44;;;3.91;90.50
69173;BME280;56280;49.662;8.408;2023-02-13T02:45:57;102802.97;;;3.08;100.00
69173;BME280;56280;49.662;8.408;2023-02-13T02:48:31;102758.03;;;3.28;100.00
69173;BME280;56280;49.662;8.408;2023-02-13T02:51:24;102798.47;;;4.31;96.05
69173;BME280;56280;49.662;8.408;2023-02-13T02:54:01;102783.25;;;4.47;90.22
69173;BME280;56280;49.662;8.408;2023-02-13T02:56:37;102766.91;;;4.30;88.25
69173;BME280;56280;49.662;8.408;2023-02-13T02:59:06;102780.66;;;4.46;87.84
69173;BME280;56280;49.662;8.408;2023-02-13T03:01:54;102758.78;;;3.94;89.54
69173;BME280;56280;49.662;8.408;2023-02-13T03:04:42;102801.50;;;3.52;93.98
69173;BME280;56280;49.662;8.408;2023-02-13T03:07:28;102810.19;;;3.56;96.19
69173;BME280;56280;49.662;8.408;2023-02-13T03:10:07;102791.56;;;3.71;96.61
69173;BME280;56280;49.662;8.408;2023-02-13T03:12:56;102794.34;;;4.16;90.88
69173;BME280;56280;49.662;8.408;2023-02-13T03:15:44;102805.41;;;4.35;89.58
69173;BME280;56280;49.662;8.408;2023-02-13T03:18:32;102768.00;;;4.18;89.19
69173;BME280;56280;49.662;8.408;2023-02-13T03:21:31;102804.28;;;4.50;90.22
69173;BME280;56280;49.662;8.408;2023-02-13T03:24:27;102808.16;;;4.78;88.57
69173;BME280;56280;49.662;8.408;2023-02-13T03:27:06;102810.44;;;4.49;88.24
69173;BME280;56280;49.662;8.408;2023-02-13T03:29:49;102795.50;;;4.51;87.16
69173;BME280;56280;49.662;8.408;2023-02-13T03:35:36;102805.41;;;4.35;87.19
69173;BME280;56280;49.662;8.408;2023-02-13T03:38:27;102793.72;;;4.00;88.32
69173;BME280;56280;49.662;8.408;2023-02-13T03:41:04;102810.44;;;3.98;89.08
69173;BME280;56280;49.662;8.408;2023-02-13T03:44:12;102825.22;;;4.05;89.44
69173;BME280;56280;49.662;8.408;2023-02-13T03:46:43;102827.75;;;4.13;88.27
69173;BME280;56280;49.662;8.408;2023-02-13T03:49:16;102819.41;;;3.84;89.51
69173;BME280;56280;49.662;8.408;2023-02-13T03:52:10;102818.47;;;3.90;89.26
69173;BME280;56280;49.662;8.408;2023-02-13T03:57:46;102757.50;;;3.63;90.01
69173;BME280;56280;49.662;8.408;2023-02-13T04:00:46;102827.53;;;4.27;90.13
69173;BME280;56280;49.662;8.408;2023-02-13T04:03:17;102801.03;;;4.34;88.94
69173;BME280;56280;49.662;8.408;2023-02-13T04:05:47;102791.69;;;4.18;89.07
69173;BME280;56280;49.662;8.408;2023-02-13T04:08:14;102784.94;;;4.03;88.94
69173;BME280;56280;49.662;8.408;2023-02-13T04:11:00;102802.06;;;4.27;88.39
69173;BME280;56280;49.662;8.408;2023-02-13T04:13:34;102811.53;;;4.36;87.76
69173;BME280;56280;49.662;8.408;2023-02-13T04:16:26;102816.66;;;3.92;89.11
69173;BME280;56280;49.662;8.408;2023-02-13T04:18:54;102801.00;;;3.25;93.58
69173;BME280;56280;49.662;8.408;2023-02-13T04:21:20;102824.13;;;2.96;96.84
69173;BME280;56280;49.662;8.408;2023-02-13T04:23:46;102798.59;;;3.07;98.19
69173;BME280;56280;49.662;8.408;2023-02-13T04:26:16;102816.00;;;3.78;96.32
69173;BME280;56280;49.662;8.408;2023-02-13T04:28:42;102805.69;;;4.20;90.41
69173;BME280;56280;49.662;8.408;2023-02-13T04:31:07;102781.78;;;3.81;89.73
69173;BME280;56280;49.662;8.408;2023-02-13T04:33:33;102829.94;;;3.83;91.29
69173;BME280;56280;49.662;8.408;2023-02-13T04:35:58;102786.25;;;3.76;90.75
69173;BME280;56280;49.662;8.408;2023-02-13T04:38:23;102804.50;;;3.87;89.66
69173;BME280;56280;49.662;8.408;2023-02-13T04:40:49;102799.31;;;3.82;88.39
69173;BME280;56280;49.662;8.408;2023-02-13T04:43:14;102807.94;;;3.90;87.61
69173;BME280;56280;49.662;8.408;2023-02-13T04:45:39;102806.16;;;3.92;86.83
69173;BME280;56280;49.662;8.408;2023-02-13T04:48:05;102772.34;;;3.68;86.18
69173;BME280;56280;49.662;8.408;2023-02-13T04:50:30;102808.13;;;3.78;85.38
69173;BME280;56280;49.662;8.408;2023-02-13T04:52:56;102761.13;;;3.56;85.03
69173;BME280;56280;49.662;8.408;2023-02-13T04:55:23;102805.50;;;3.78;84.79
69173;BME280;56280;49.662;8.408;2023-02-13T04:57:51;102807.41;;;3.67;84.28
69173;BME280;56280;49.662;8.408;2023-02-13T05:00:17;102804.00;;;3.61;83.77
69173;BME280;56280;49.662;8.408;2023-02-13T05:02:42;102796.22;;;3.52;83.39
69173;BME280;56280;49.662;8.408;2023-02-13T05:05:07;102765.91;;;3.29;83.61
69173;BME280;56280;49.662;8.408;2023-02-13T05:07:33;102783.31;;;3.38;83.60
69173;BME280;56280;49.662;8.408;2023-02-13T05:09:58;102825.84;;;3.65;84.26
69173;BME280;56280;49.662;8.408;2023-02-13T05:12:23;102796.41;;;3.41;83.79
69173;BME280;56280;49.662;8.408;2023-02-13T05:14:49;102816.41;;;3.52;83.21
69173;BME280;56280;49.662;8.408;2023-02-13T05:17:14;102825.44;;;3.31;83.99
69173;BME280;56280;49.662;8.408;2023-02-13T05:19:39;102810.53;;;3.31;84.11
69173;BME280;56280;49.662;8.408;2023-02-13T05:22:04;102801.94;;;3.18;84.87
69173;BME280;56280;49.662;8.408;2023-02-13T05:24:48;102787.09;;;3.17;84.30
69173;BME280;56280;49.662;8.408;2023-02-13T05:27:14;102815.78;;;3.33;84.32
69173;BME280;56280;49.662;8.408;2023-02-13T05:29:39;102824.53;;;3.33;83.94
69173;BME280;56280;49.662;8.408;2023-02-13T05:32:04;102822.81;;;3.31;83.59
69173;BME280;56280;49.662;8.408;2023-02-13T05:34:30;102824.66;;;3.24;83.37
69173;BME280;56280;49.662;8.408;2023-02-13T05:36:55;102802.03;;;3.12;83.53
69173;BME280;56280;49.662;8.408;2023-02-13T05:39:21;102802.94;;;3.11;83.38
69173;BME280;56280;49.662;8.408;2023-02-13T05:41:46;102819.50;;;3.16;83.76
69173;BME280;56280;49.662;8.408;2023-02-13T05:44:12;102813.47;;;3.09;84.66
69173;BME280;56280;49.662;8.408;2023-02-13T05:46:39;102774.38;;;2.83;84.46
69173;BME280;56280;49.662;8.408;2023-02-13T05:49:06;102801.34;;;2.96;84.24
69173;BME280;56280;49.662;8.408;2023-02-13T05:51:32;102808.25;;;3.05;84.31
69173;BME280;56280;49.662;8.408;2023-02-13T05:53:57;102724.88;;;2.51;84.02
69173;BME280;56280;49.662;8.408;2023-02-13T05:56:23;102791.72;;;2.97;84.16
69173;BME280;56280;49.662;8.408;2023-02-13T05:58:55;102792.63;;;2.94;83.30
69173;BME280;56280;49.662;8.408;2023-02-13T06:01:22;102790.25;;;2.74;82.17
69173;BME280;56280;49.662;8.408;2023-02-13T06:03:47;102821.22;;;2.38;81.74
69173;BME280;56280;49.662;8.408;2023-02-13T06:06:13;102781.09;;;2.27;82.23
69173;BME280;56280;49.662;8.408;2023-02-13T06:08:38;102768.91;;;2.24;82.57
69173;BME280;56280;49.662;8.408;2023-02-13T06:11:04;102820.09;;;2.62;82.81
69173;BME280;56280;49.662;8.408;2023-02-13T06:13:29;102789.69;;;2.41;83.10
69173;BME280;56280;49.662;8.408;2023-02-13T06:15:55;102823.66;;;2.58;82.09
69173;BME280;56280;49.662;8.408;2023-02-13T06:18:21;102767.97;;;2.28;81.64
69173;BME280;56280;49.662;8.408;2023-02-13T06:20:46;102823.75;;;2.49;80.99
69173;BME280;56280;49.662;8.408;2023-02-13T06:23:11;102802.00;;;2.34;81.91
69173;BME280;56280;49.662;8.408;2023-02-13T06:25:37;102749.09;;;1.91;82.34
69173;BME280;56280;49.662;8.408;2023-02-13T06:28:03;102829.06;;;2.41;82.47
69173;BME280;56280;49.662;8.408;2023-02-13T06:30:29;102818.72;;;2.26;82.08
69173;BME280;56280;49.662;8.408;2023-02-13T06:32:54;102808.25;;;2.23;82.36
69173;BME280;56280;49.662;8.408;2023-02-13T06:35:20;102805.63;;;2.24;82.91
69173;BME280;56280;49.662;8.408;2023-02-13T06:37:45;102824.72;;;2.40;83.07
69173;BME280;56280;49.662;8.408;2023-02-13T06:40:12;102838.63;;;2.48;82.64
69173;BME280;56280;49.662;8.408;2023-02-13T06:42:38;102839.53;;;2.44;82.97
69173;BME280;56280;49.662;8.408;2023-02-13T06:45:03;102841.31;;;2.42;82.75
69173;BME280;56280;49.662;8.408;2023-02-13T06:47:29;102798.72;;;2.11;82.81
69173;BME280;56280;49.662;8.408;2023-02-13T06:49:54;102799.75;;;1.93;82.65
69173;BME280;56280;49.662;8.408;2023-02-13T06:52:19;102796.97;;;2.13;82.79
69173;BME280;56280;49.662;8.408;2023-02-13T06:54:45;102824.91;;;2.17;82.72
69173;BME280;56280;49.662;8.408;2023-02-13T06:57:10;102831.91;;;2.15;83.22
69173;BME280;56280;49.662;8.408;2023-02-13T06:59:35;102837.94;;;2.25;83.17
69173;BME280;56280;49.662;8.408;2023-02-13T07:02:01;102828.44;;;2.16;82.88
69173;BME280;56280;49.662;8.408;2023-02-13T07:04:26;102836.19;;;2.24;83.10
69173;BME280;56280;49.662;8.408;2023-02-13T07:06:55;102818.81;;;2.13;83.27
69173;BME280;56280;49.662;8.408;2023-02-13T07:09:22;102829.22;;;2.23;83.36
69173;BME280;56280;49.662;8.408;2023-02-13T07:11:47;102845.75;;;2.35;82.95
69173;BME280;56280;49.662;8.408;2023-02-13T07:14:12;102837.81;;;2.43;83.42
69173;BME280;56280;49.662;8.408;2023-02-13T07:16:48;102809.09;;;2.26;83.10
69173;BME280;56280;49.662;8.408;2023-02-13T07:19:14;102816.88;;;2.35;82.35
69173;BME280;56280;49.662;8.408;2023-02-13T07:21:42;102822.94;;;2.42;82.76
69173;BME280;56280;49.662;8.408;2023-02-13T07:24:10;102834.22;;;2.52;82.27
69173;BME280;56280;49.662;8.408;2023-02-13T07:26:43;102746.34;;;2.06;82.18
69173;BME280;56280;49.662;8.408;2023-02-13T07:29:11;102793.25;;;2.37;82.12
69173;BME280;56280;49.662;8.408;2023-02-13T07:31:37;102858.38;;;2.83;82.35
69173;BME280;56280;49.662;8.408;2023-02-13T07:34:03;102825.34;;;2.64;82.43
69173;BME280;56280;49.662;8.408;2023-02-13T07:36:28;102847.03;;;2.81;82.21
69173;BME280;56280;49.662;8.408;2023-02-13T07:38:53;102804.38;;;2.59;82.83
69173;BME280;56280;49.662;8.408;2023-02-13T07:41:19;102841.66;;;2.94;82.47
69173;BME280;56280;49.662;8.408;2023-02-13T07:43:47;102840.63;;;3.05;83.27
69173;BME280;56280;49.662;8.408;2023-02-13T07:46:18;102824.00;;;3.05;83.85
69173;BME280;56280;49.662;8.408;2023-02-13T07:48:50;102850.84;;;3.30;82.25
69173;BME280;56280;49.662;8.408;2023-02-13T07:51:16;102851.69;;;3.32;81.58
69173;BME280;56280;49.662;8.408;2023-02-13T07:53:42;102862.94;;;3.45;82.22
69173;BME280;56280;49.662;8.408;2023-02-13T07:56:07;102814.16;;;3.24;81.76
69173;BME280;56280;49.662;8.408;2023-02-13T07:58:34;102852.09;;;3.67;83.50
69173;BME280;56280;49.662;8.408;2023-02-13T08:01:16;102811.72;;;3.74;82.53
69173;BME280;56280;49.662;8.408;2023-02-13T08:03:47;102834.16;;;3.96;81.84
69173;BME280;56280;49.662;8.408;2023-02-13T08:06:17;102809.50;;;4.00;81.92
69173;BME280;56280;49.662;8.408;2023-02-13T08:08:54;102818.34;;;4.49;82.22
69173;BME280;56280;49.662;8.408;2023-02-13T08:11:44;102692.44;;;3.78;79.72
69173;BME280;56280;49.662;8.408;2023-02-13T08:14:26;102782.53;;;4.39;80.68
69173;BME280;56280;49.662;8.408;2023-02-13T08:17:00;102720.69;;;4.16;79.81
69173;BME280;56280;49.662;8.408;2023-02-13T08:19:26;102812.63;;;4.72;79.41
69173;BME280;56280;49.662;8.408;2023-02-13T08:21:52;102743.59;;;4.58;80.30
69173;BME280;56280;49.662;8.408;2023-02-13T08:24:17;102834.41;;;5.24;79.69
69173;BME280;56280;49.662;8.408;2023-02-13T08:26:50;102803.34;;;4.98;78.89
69173;BME280;56280;49.662;8.408;2023-02-13T08:29:18;102763.59;;;4.65;79.91
69173;BME280;56280;49.662;8.408;2023-02-13T08:31:52;102774.75;;;4.80;79.75
69173;BME280;56280;49.662;8.408;2023-02-13T08:34:20;102752.25;;;4.63;79.11
69173;BME280;56280;49.662;8.408;2023-02-13T08:36:45;102710.41;;;4.51;79.57
69173;BME280;56280;49.662;8.408;2023-02-13T08:39:14;102770.72;;;5.04;80.43
69173;BME280;56280;49.662;8.408;2023-02-13T08:41:56;102783.34;;;5.30;80.71
69173;BME280;56280;49.662;8.408;2023-02-13T08:44:24;102750.88;;;5.28;81.61
69173;BME280;56280;49.662;8.408;2023-02-13T08:46:52;102766.13;;;5.54;81.04
69173;BME280;56280;49.662;8.408;2023-02-13T08:52:12;102782.44;;;4.45;82.93
69173;BME280;56280;49.662;8.408;2023-02-13T08:54:38;102823.50;;;4.54;84.54
69173;BME280;56280;49.662;8.408;2023-02-13T08:57:06;102768.06;;;4.15;85.40
69173;BME280;56280;49.662;8.408;2023-02-13T08:59:35;102876.06;;;4.59;87.53
69173;BME280;56280;49.662;8.408;2023-02-13T09:02:00;102765.22;;;4.27;87.96
69173;BME280;56280;49.662;8.408;2023-02-13T09:04:26;102784.94;;;4.53;87.91
69173;BME280;56280;49.662;8.408;2023-02-13T09:06:52;102832.47;;;4.90;87.07
69173;BME280;56280;49.662;8.408;2023-02-13T09:09:20;102759.13;;;4.25;89.10
69173;BME280;56280;49.662;8.408;2023-02-13T09:12:14;102750.31;;;4.26;90.05
69173;BME280;56280;49.662;8.408;2023-02-13T09:14:48;102773.78;;;4.38;89.42
69173;BME280;56280;49.662;8.408;2023-02-13T09:17:18;102767.81;;;3.79;91.97
69173;BME280;56280;49.662;8.408;2023-02-13T09:19:46;102752.28;;;3.60;94.66
69173;BME280;56280;49.662;8.408;2023-02-13T09:22:12;102774.78;;;3.80;96.25
69173;BME280;56280;49.662;8.408;2023-02-13T09:27:40;102740.28;;;4.47;92.48
69173;BME280;56280;49.662;8.408;2023-02-13T09:30:09;102805.47;;;5.23;90.96
69173;BME280;56280;49.662;8.408;2023-02-13T09:32:53;102767.47;;;4.91;89.55
69173;BME280;56280;49.662;8.408;2023-02-13T09:35:25;102760.13;;;5.07;89.76
69173;BME280;56280;49.662;8.408;2023-02-13T09:38:11;102764.63;;;5.80;88.02
69173;BME280;56280;49.662;8.408;2023-02-13T09:40:55;102865.56;;;6.26;87.52
69173;BME280;56280;49.662;8.408;2023-02-13T09:46:13;102752.13;;;6.23;85.14
69173;BME280;56280;49.662;8.408;2023-02-13T09:51:24;102821.41;;;5.95;84.61
69173;BME280;56280;49.662;8.408;2023-02-13T09:54:00;102794.13;;;5.58;88.34
69173;BME280;56280;49.662;8.408;2023-02-13T09:59:34;102780.84;;;5.63;89.81
69173;BME280;56280;49.662;8.408;2023-02-13T10:09:15;102744.75;;;5.65;88.09
69173;BME280;56280;49.662;8.408;2023-02-13T10:18:20;102799.28;;;5.64;88.98
69173;BME280;56280;49.662;8.408;2023-02-13T10:23:59;102862.16;;;6.20;87.60
69173;BME280;56280;49.662;8.408;2023-02-13T10:26:40;102714.13;;;5.94;83.98
69173;BME280;56280;49.662;8.408;2023-02-13T10:29:36;102852.03;;;7.05;84.15
69173;BME280;56280;49.662;8.408;2023-02-13T10:32:47;102762.47;;;5.97;85.99
69173;BME280;56280;49.662;8.408;2023-02-13T10:35:34;102795.25;;;6.23;84.44
69173;BME280;56280;49.662;8.408;2023-02-13T10:38:23;102767.66;;;6.98;82.33
69173;BME280;56280;49.662;8.408;2023-02-13T10:43:35;102828.59;;;6.60;85.93
69173;BME280;56280;49.662;8.408;2023-02-13T10:46:32;102844.94;;;7.06;84.55
69173;BME280;56280;49.662;8.408;2023-02-13T11:02:55;102811.06;;;8.05;78.63
69173;BME280;56280;49.662;8.408;2023-02-13T11:05:43;102838.19;;;8.37;78.75
69173;BME280;56280;49.662;8.408;2023-02-13T11:08:38;102822.66;;;7.73;79.26
69173;BME280;56280;49.662;8.408;2023-02-13T11:11:56;102811.06;;;8.30;78.15
69173;BME280;56280;49.662;8.408;2023-02-13T11:15:02;102695.50;;;7.24;77.87
69173;BME280;56280;49.662;8.408;2023-02-13T11:23:52;102738.28;;;7.37;80.35
69173;BME280;56280;49.662;8.408;2023-02-13T11:26:37;102678.09;;;6.88;80.96
69173;BME280;56280;49.662;8.408;2023-02-13T11:29:05;102804.56;;;7.87;78.87
69173;BME280;56280;49.662;8.408;2023-02-13T11:31:40;102790.09;;;8.51;75.74
69173;BME280;56280;49.662;8.408;2023-02-13T11:34:22;102795.88;;;9.09;73.77
69173;BME280;56280;49.662;8.408;2023-02-13T11:36:54;102802.47;;;9.23;73.25
69173;BME280;56280;49.662;8.408;2023-02-13T11:39:31;102792.88;;;8.71;76.57
69173;BME280;56280;49.662;8.408;2023-02-13T11:41:56;102801.34;;;9.28;74.09
69173;BME280;56280;49.662;8.408;2023-02-13T11:44:34;102797.75;;;8.58;75.15
69173;BME280;56280;49.662;8.408;2023-02-13T11:47:08;102734.81;;;8.65;74.60
69173;BME280;56280;49.662;8.408;2023-02-13T11:49:51;102679.06;;;8.68;74.28
69173;BME280;56280;49.662;8.408;2023-02-13T11:55:32;102752.84;;;8.29;75.60
69173;BME280;56280;49.662;8.408;2023-02-13T12:00:36;102785.66;;;9.22;74.37
69173;BME280;56280;49.662;8.408;2023-02-13T12:06:14;102790.50;;;8.64;73.97
69173;BME280;56280;49.662;8.408;2023-02-13T12:08:42;102782.00;;;9.26;73.78
69173;BME280;56280;49.662;8.408;2023-02-13T12:11:35;102781.81;;;8.84;72.96
69173;BME280;56280;49.662;8.408;2023-02-13T12:14:03;102752.81;;;8.81;73.44
69173;BME280;56280;49.662;8.408;2023-02-13T12:16:34;102764.94;;;9.32;72.01
69173;BME280;56280;49.662;8.408;2023-02-13T12:19:05;102770.94;;;8.91;71.80
69173;BME280;56280;49.662;8.408;2023-02-13T12:21:59;102782.06;;;8.78;73.21
69173;BME280;56280;49.662;8.408;2023-02-13T12:25:41;102778.41;;;8.80;73.89
69173;BME280;56280;49.662;8.408;2023-02-13T12:30:48;102740.75;;;8.96;71.46
69173;BME280;56280;49.662;8.408;2023-02-13T12:33:57;102764.66;;;9.62;70.71
69173;BME280;56280;49.662;8.408;2023-02-13T12:36:44;102754.06;;;9.62;68.60
69173;BME280;56280;49.662;8.408;2023-02-13T12:39:33;102756.47;;;9.46;69.41
69173;BME280;56280;49.662;8.408;2023-02-13T12:59:03;102689.66;;;9.99;65.70
69173;BME280;56280;49.662;8.408;2023-02-13T13:04:59;102739.50;;;9.93;67.94
69173;BME280;56280;49.662;8.408;2023-02-13T13:13:42;102714.47;;;10.19;69.07
69173;BME280;56280;49.662;8.408;2023-02-13T13:16:22;102688.59;;;9.83;68.66
69173;BME280;56280;49.662;8.408;2023-02-13T13:22:01;102689.44;;;10.04;70.15
69173;BME280;56280;49.662;8.408;2023-02-13T13:25:24;102715.94;;;10.06;67.74
69173;BME280;56280;49.662;8.408;2023-02-13T13:27:48;102672.28;;;10.52;67.78
69173;BME280;56280;49.662;8.408;2023-02-13T13:30:32;102614.59;;;10.35;66.07
69173;BME280;56280;49.662;8.408;2023-02-13T13:41:58;102710.72;;;10.45;68.99
69173;BME280;56280;49.662;8.408;2023-02-13T13:47:30;102653.75;;;10.51;66.04
69173;BME280;56280;49.662;8.408;2023-02-13T13:50:19;102566.97;;;9.91;67.35
69173;BME280;56280;49.662;8.408;2023-02-13T13:53:25;102577.22;;;10.57;65.45
69173;BME280;56280;49.662;8.408;2023-02-13T14:03:39;102664.78;;;11.18;64.04
69173;BME280;56280;49.662;8.408;2023-02-13T14:06:13;102667.47;;;11.53;62.38
69173;BME280;56280;49.662;8.408;2023-02-13T14:13:52;102606.09;;;10.84;63.57
69173;BME280;56280;49.662;8.408;2023-02-13T14:19:01;102630.81;;;11.23;63.74
69173;BME280;56280;49.662;8.408;2023-02-13T14:21:33;102634.75;;;11.85;62.04
69173;BME280;56280;49.662;8.408;2023-02-13T14:23:59;102647.91;;;11.89;61.24
69173;BME280;56280;49.662;8.408;2023-02-13T14:32:53;102512.91;;;11.56;59.71
69173;BME280;56280;49.662;8.408;2023-02-13T14:35:40;102582.94;;;11.91;59.75
69173;BME280;56280;49.662;8.408;2023-02-13T14:38:21;102601.16;;;11.65;59.83
69173;BME280;56280;49.662;8.408;2023-02-13T14:40:53;102545.44;;;11.45;60.38
69173;BME280;56280;49.662;8.408;2023-02-13T14:43:26;102620.00;;;11.78;59.13
69173;BME280;56280;49.662;8.408;2023-02-13T14:49:09;102606.25;;;12.21;59.25
69173;BME280;56280;49.662;8.408;2023-02-13T14:52:04;102519.84;;;11.76;59.32
69173;BME280;56280;49.662;8.408;2023-02-13T14:54:49;102608.88;;;12.38;58.92
69173;BME280;56280;49.662;8.408;2023-02-13T15:03:24;102626.09;;;12.15;61.15
69173;BME280;56280;49.662;8.408;2023-02-13T15:05:58;102521.84;;;11.72;60.06
69173;BME280;56280;49.662;8.408;2023-02-13T15:08:31;102522.81;;;11.87;60.59
69173;BME280;56280;49.662;8.408;2023-02-13T15:10:58;102611.03;;;12.48;59.84
69173;BME280;56280;49.662;8.408;2023-02-13T15:13:34;102641.56;;;12.74;58.92
69173;BME280;56280;49.662;8.408;2023-02-13T15:16:05;102613.25;;;12.55;59.72
69173;BME280;56280;49.662;8.408;2023-02-13T15:18:44;102631.91;;;12.87;58.56
69173;BME280;56280;49.662;8.408;2023-02-13T15:21:15;102568.28;;;12.33;58.76
69173;BME280;56280;49.662;8.408;2023-02-13T15:23:42;102584.09;;;12.52;59.23
69173;BME280;56280;49.662;8.408;2023-02-13T15:26:08;102560.03;;;12.22;59.17
69173;BME280;56280;49.662;8.408;2023-02-13T15:29:15;102568.69;;;12.26;59.14
69173;BME280;56280;49.662;8.408;2023-02-13T15:31:40;102509.13;;;12.11;58.67
69173;BME280;56280;49.662;8.408;2023-02-13T15:34:29;102628.16;;;12.75;58.91
69173;BME280;56280;49.662;8.408;2023-02-13T15:36:56;102643.97;;;12.79;59.50
69173;BME280;56280;49.662;8.408;2023-02-13T15:39:25;102632.50;;;12.76;58.95
69173;BME280;56280;49.662;8.408;2023-02-13T15:41:55;102637.41;;;12.68;58.48
69173;BME280;56280;49.662;8.408;2023-02-13T15:44:30;102585.63;;;12.40;59.55
69173;BME280;56280;49.662;8.408;2023-02-13T15:47:07;102632.34;;;12.64;59.39
69173;BME280;56280;49.662;8.408;2023-02-13T15:49:38;102591.91;;;12.39;58.68
69173;BME280;56280;49.662;8.408;2023-02-13T15:52:13;102624.34;;;12.48;58.78
69173;BME280;56280;49.662;8.408;2023-02-13T15:54:48;102594.13;;;12.31;58.29
69173;BME280;56280;49.662;8.408;2023-02-13T15:57:20;102630.50;;;12.32;58.37
69173;BME280;56280;49.662;8.408;2023-02-13T15:59:48;102622.03;;;12.42;58.63
69173;BME280;56280;49.662;8.408;2023-02-13T16:02:24;102626.56;;;12.39;59.20
69173;BME280;56280;49.662;8.408;2023-02-13T16:04:56;102574.16;;;12.07;59.20
69173;BME280;56280;49.662;8.408;2023-02-13T16:07:22;102585.75;;;12.06;58.18
69173;BME280;56280;49.662;8.408;2023-02-13T16:09:51;102588.94;;;11.96;58.75